createdAt,value
2022-10-13T00:01:29.729Z,101884.31
2022-10-13T00:03:51.777Z,101882.06
2022-10-13T00:06:21.225Z,101882.88
2022-10-13T00:08:43.438Z,101879.81
2022-10-13T00:11:26.950Z,101873.97
2022-10-13T00:13:50.423Z,101871.53
2022-10-13T00:16:15.500Z,101864.06
2022-10-13T00:18:38.461Z,101866.00
2022-10-13T00:21:00.280Z,101865.19
2022-10-13T00:23:22.282Z,101860.50
2022-10-13T00:25:47.887Z,101858.22
2022-10-13T00:28:10.418Z,101850.75
2022-10-13T00:30:36.039Z,101850.44
2022-10-13T00:32:57.939Z,101842.97
2022-10-13T00:35:19.768Z,101834.06
2022-10-13T00:37:41.543Z,101836.47
2022-10-13T00:40:04.334Z,101841.69
2022-10-13T00:42:27.138Z,101837.31
2022-10-13T00:45:00.255Z,101839.44
2022-10-13T00:47:22.351Z,101843.00
2022-10-13T00:49:44.508Z,101845.47
2022-10-13T00:52:06.459Z,101851.50
2022-10-13T00:54:29.710Z,101846.16
2022-10-13T00:56:53.978Z,101843.56
2022-10-13T00:59:23.506Z,101842.16
2022-10-13T01:01:49.237Z,101839.38
2022-10-13T01:04:11.658Z,101853.34
2022-10-13T01:06:34.385Z,101835.34
2022-10-13T01:08:56.226Z,101841.66
2022-10-13T01:11:49.929Z,101844.94
2022-10-13T01:14:31.612Z,101846.56
2022-10-13T01:17:21.098Z,101842.66
2022-10-13T01:20:28.915Z,101847.03
2022-10-13T01:23:33.354Z,101841.88
2022-10-13T01:26:23.140Z,101847.88
2022-10-13T01:29:05.402Z,101835.38
2022-10-13T01:31:46.070Z,101835.03
2022-10-13T01:34:41.493Z,101835.53
2022-10-13T01:37:53.378Z,101835.22
2022-10-13T01:40:37.186Z,101828.91
2022-10-13T01:43:10.793Z,101828.06
2022-10-13T01:45:51.375Z,101825.00
2022-10-13T01:48:15.822Z,101829.88
2022-10-13T01:50:39.472Z,101826.31
2022-10-13T01:53:05.284Z,101822.38
2022-10-13T01:55:28.978Z,101819.63
2022-10-13T01:57:50.739Z,101826.81
2022-10-13T02:00:21.113Z,101822.88
2022-10-13T02:03:31.211Z,101811.22
2022-10-13T02:06:10.530Z,101817.56
2022-10-13T02:08:46.335Z,101804.22
2022-10-13T02:11:19.721Z,101810.56
2022-10-13T02:14:03.464Z,101795.59
2022-10-13T02:16:31.924Z,101792.53
2022-10-13T02:18:57.004Z,101791.06
2022-10-13T02:21:19.262Z,101793.53
2022-10-13T02:23:43.376Z,101802.63
2022-10-13T02:26:05.662Z,101795.13
2022-10-13T02:28:29.247Z,101797.59
2022-10-13T02:30:51.783Z,101787.84
2022-10-13T02:33:15.422Z,101793.84
2022-10-13T02:35:37.395Z,101793.03
2022-10-13T02:37:59.759Z,101788.81
2022-10-13T02:40:21.568Z,101785.72
2022-10-13T02:42:44.010Z,101789.00
2022-10-13T02:45:07.058Z,101784.75
2022-10-13T02:47:28.961Z,101781.66
2022-10-13T02:49:50.714Z,101781.34
2022-10-13T02:52:12.555Z,101774.66
2022-10-13T02:54:36.869Z,101778.28
2022-10-13T02:56:58.730Z,101771.59
2022-10-13T02:59:20.464Z,101762.97
2022-10-13T03:01:44.309Z,101763.78
2022-10-13T03:04:06.097Z,101761.03
2022-10-13T03:06:27.815Z,101762.19
2022-10-13T03:08:49.596Z,101755.50
2022-10-13T03:11:11.409Z,101760.22
2022-10-13T03:13:33.551Z,101759.06
2022-10-13T03:16:01.232Z,101756.00
2022-10-13T03:18:23.065Z,101756.78
2022-10-13T03:20:44.901Z,101754.53
2022-10-13T03:23:07.105Z,101748.19
2022-10-13T03:25:29.086Z,101747.34
2022-10-13T03:27:51.855Z,101744.94
2022-10-13T03:30:14.007Z,101744.94
2022-10-13T03:32:35.734Z,101748.00
2022-10-13T03:34:57.498Z,101746.06
2022-10-13T03:37:19.295Z,101743.28
2022-10-13T03:39:41.226Z,101740.53
2022-10-13T03:42:03.575Z,101738.91
2022-10-13T03:44:25.736Z,101736.16
2022-10-13T03:46:47.542Z,101734.53
2022-10-13T03:49:11.504Z,101743.94
2022-10-13T03:51:33.652Z,101739.56
2022-10-13T03:53:55.450Z,101739.88
2022-10-13T03:56:25.393Z,101745.09
2022-10-13T03:58:47.362Z,101741.84
2022-10-13T04:01:10.548Z,101739.06
2022-10-13T04:03:35.138Z,101733.53
2022-10-13T04:06:05.306Z,101737.44
2022-10-13T04:08:27.868Z,101726.72
2022-10-13T04:11:02.437Z,101735.81
2022-10-13T04:13:24.278Z,101727.53
2022-10-13T04:15:46.794Z,101738.56
2022-10-13T04:18:10.729Z,101721.50
2022-10-13T04:20:36.723Z,101724.75
2022-10-13T04:22:58.516Z,101728.34
2022-10-13T04:25:20.262Z,101720.38
2022-10-13T04:27:42.109Z,101720.38
2022-10-13T04:30:06.743Z,101718.75
2022-10-13T04:32:28.484Z,101711.59
2022-10-13T04:34:50.557Z,101705.72
2022-10-13T04:37:12.613Z,101705.72
2022-10-13T04:39:34.570Z,101709.31
2022-10-13T04:41:56.375Z,101708.16
2022-10-13T04:44:18.173Z,101703.78
2022-10-13T04:46:39.984Z,101701.03
2022-10-13T04:49:01.909Z,101692.75
2022-10-13T04:51:27.346Z,101702.66
2022-10-13T04:53:55.005Z,101708.97
2022-10-13T04:56:18.263Z,101704.25
2022-10-13T04:58:41.778Z,101703.13
2022-10-13T05:01:07.846Z,101693.69
2022-10-13T05:03:29.682Z,101688.16
2022-10-13T05:05:52.724Z,101685.41
2022-10-13T05:08:14.531Z,101680.22
2022-10-13T05:10:36.419Z,101690.44
2022-10-13T05:12:58.209Z,101688.50
2022-10-13T05:15:20.196Z,101684.59
2022-10-13T05:17:41.948Z,101690.63
2022-10-13T05:20:04.468Z,101698.59
2022-10-13T05:22:28.403Z,101689.47
2022-10-13T05:24:50.217Z,101693.38
2022-10-13T05:27:13.831Z,101694.84
2022-10-13T05:29:37.066Z,101693.19
2022-10-13T05:31:58.871Z,101699.56
2022-10-13T05:34:20.643Z,101683.28
2022-10-13T05:36:42.563Z,101678.09
2022-10-13T05:39:09.654Z,101686.38
2022-10-13T05:41:32.025Z,101694.66
2022-10-13T05:43:58.998Z,101712.91
2022-10-13T05:46:20.924Z,101714.38
2022-10-13T05:48:42.907Z,101708.34
2022-10-13T05:51:16.579Z,101710.28
2022-10-13T05:53:50.251Z,101713.88
2022-10-13T05:56:22.529Z,101710.28
2022-10-13T05:58:50.458Z,101714.97
2022-10-13T06:01:19.469Z,101701.16
2022-10-13T06:03:44.946Z,101696.78
2022-10-13T06:06:07.302Z,101697.28
2022-10-13T06:08:30.252Z,101711.09
2022-10-13T06:10:52.161Z,101689.00
2022-10-13T06:13:14.751Z,101687.53
2022-10-13T06:15:36.803Z,101681.69
2022-10-13T06:17:59.115Z,101686.06
2022-10-13T06:20:20.882Z,101684.91
2022-10-13T06:22:42.667Z,101683.44
2022-10-13T06:25:07.207Z,101686.69
2022-10-13T06:27:29.272Z,101682.00
2022-10-13T06:29:52.334Z,101683.63
2022-10-13T06:32:14.191Z,101683.44
2022-10-13T06:34:36.021Z,101678.91
2022-10-13T06:36:58.182Z,101687.03
2022-10-13T06:39:20.175Z,101679.38
2022-10-13T06:41:42.045Z,101678.69
2022-10-13T06:44:04.142Z,101675.78
2022-10-13T06:46:26.102Z,101670.41
2022-10-13T06:48:52.244Z,101671.38
2022-10-13T06:51:15.381Z,101658.84
2022-10-13T06:53:37.881Z,101670.22
2022-10-13T06:56:02.002Z,101661.72
2022-10-13T06:58:23.817Z,101667.41
2022-10-13T07:00:45.665Z,101665.63
2022-10-13T07:03:08.583Z,101670.16
2022-10-13T07:05:31.395Z,101673.41
2022-10-13T07:07:56.526Z,101680.72
2022-10-13T07:10:18.537Z,101676.03
2022-10-13T07:12:41.040Z,101674.56
2022-10-13T07:15:03.126Z,101673.88
2022-10-13T07:17:25.073Z,101666.88
2022-10-13T07:19:48.676Z,101668.97
2022-10-13T07:22:10.508Z,101674.19
2022-10-13T07:24:32.309Z,101689.63
2022-10-13T07:26:54.080Z,101678.22
2022-10-13T07:29:16.184Z,101678.72
2022-10-13T07:31:38.135Z,101674.47
2022-10-13T07:34:00.669Z,101668.94
2022-10-13T07:36:23.633Z,101675.75
2022-10-13T07:38:46.923Z,101676.25
2022-10-13T07:41:11.948Z,101672.00
2022-10-13T07:43:33.899Z,101681.91
2022-10-13T07:46:01.838Z,101675.72
2022-10-13T07:48:23.768Z,101678.16
2022-10-13T07:50:45.736Z,101672.63
2022-10-13T07:53:07.553Z,101681.41
2022-10-13T07:55:29.466Z,101678.31
2022-10-13T07:57:51.259Z,101691.31
2022-10-13T08:00:13.586Z,101681.09
2022-10-13T08:02:35.981Z,101675.19
2022-10-13T08:04:59.178Z,101679.72
2022-10-13T08:07:21.197Z,101675.97
2022-10-13T08:09:44.980Z,101680.50
2022-10-13T08:12:06.958Z,101682.28
2022-10-13T08:14:30.848Z,101679.97
2022-10-13T08:16:53.729Z,101678.50
2022-10-13T08:19:22.157Z,101679.78
2022-10-13T08:21:58.274Z,101679.78
2022-10-13T08:24:24.405Z,101675.06
2022-10-13T08:26:47.139Z,101671.59
2022-10-13T08:29:21.387Z,101670.91
2022-10-13T08:31:45.255Z,101667.97
2022-10-13T08:34:08.239Z,101666.13
2022-10-13T08:36:30.167Z,101668.69
2022-10-13T08:38:53.511Z,101668.19
2022-10-13T08:41:21.502Z,101672.38
2022-10-13T08:44:47.535Z,101658.44
2022-10-13T08:47:07.043Z,101660.94
2022-10-13T08:49:30.907Z,101663.66
2022-10-13T08:51:54.044Z,101660.91
2022-10-13T08:54:20.702Z,101661.78
2022-10-13T08:56:43.125Z,101653.50
2022-10-13T08:59:06.802Z,101658.28
2022-10-13T09:01:37.358Z,101652.50
2022-10-13T09:04:26.903Z,101648.31
2022-10-13T09:06:56.845Z,101644.66
2022-10-13T09:09:19.083Z,101650.66
2022-10-13T09:11:45.307Z,101648.34
2022-10-13T09:14:20.588Z,101642.22
2022-10-13T09:16:44.985Z,101646.84
2022-10-13T09:19:20.419Z,101641.88
2022-10-13T09:21:42.439Z,101639.22
2022-10-13T09:24:15.257Z,101638.97
2022-10-13T09:26:38.953Z,101633.88
2022-10-13T09:29:10.504Z,101638.06
2022-10-13T09:31:33.849Z,101636.09
2022-10-13T09:34:03.352Z,101634.91
2022-10-13T09:36:25.862Z,101635.63
2022-10-13T09:39:16.381Z,101631.66
2022-10-13T09:41:42.495Z,101634.00
2022-10-13T09:44:16.703Z,101631.56
2022-10-13T09:46:54.942Z,101636.31
2022-10-13T09:49:37.674Z,101636.66
2022-10-13T09:52:19.079Z,101619.91
2022-10-13T09:54:46.957Z,101624.63
2022-10-13T09:57:48.391Z,101624.28
2022-10-13T10:00:28.697Z,101625.78
2022-10-13T10:03:18.634Z,101623.00
2022-10-13T10:05:46.329Z,101624.53
2022-10-13T10:09:08.376Z,101633.19
2022-10-13T10:11:49.277Z,101619.53
2022-10-13T10:14:31.745Z,101626.59
2022-10-13T10:17:15.127Z,101625.00
2022-10-13T10:19:42.923Z,101626.84
2022-10-13T10:22:26.267Z,101626.38
2022-10-13T10:25:00.262Z,101619.66
2022-10-13T10:27:38.919Z,101619.31
2022-10-13T10:30:17.824Z,101608.66
2022-10-13T10:33:11.113Z,101617.13
2022-10-13T10:36:07.339Z,101623.81
2022-10-13T10:38:45.650Z,101622.22
2022-10-13T10:41:36.668Z,101624.53
2022-10-13T10:44:10.966Z,101624.38
2022-10-13T10:46:39.809Z,101615.50
2022-10-13T10:49:19.914Z,101616.19
2022-10-13T10:51:43.759Z,101608.91
2022-10-13T10:54:30.327Z,101618.41
2022-10-13T10:57:08.492Z,101613.19
2022-10-13T10:59:49.981Z,101621.50
2022-10-13T11:02:37.912Z,101613.50
2022-10-13T11:05:05.286Z,101618.97
2022-10-13T11:07:28.367Z,101608.19
2022-10-13T11:09:50.688Z,101611.78
2022-10-13T11:12:23.015Z,101603.44
2022-10-13T11:14:54.393Z,101604.47
2022-10-13T11:17:29.498Z,101599.28
2022-10-13T11:19:51.515Z,101599.63
2022-10-13T11:22:21.165Z,101592.09
2022-10-13T11:24:47.834Z,101586.91
2022-10-13T11:27:12.328Z,101592.47
2022-10-13T11:30:01.796Z,101583.44
2022-10-13T11:32:26.879Z,101594.22
2022-10-13T11:35:08.018Z,101584.84
2022-10-13T11:38:07.741Z,101575.44
2022-10-13T11:40:58.231Z,101569.56
2022-10-13T11:43:47.248Z,101568.06
2022-10-13T11:46:24.724Z,101568.53
2022-10-13T11:49:17.487Z,101563.44
2022-10-13T11:52:13.050Z,101561.13
2022-10-13T11:54:53.690Z,101562.75
2022-10-13T11:57:25.350Z,101558.47
2022-10-13T11:59:51.474Z,101558.13
2022-10-13T12:02:19.399Z,101560.91
2022-10-13T12:04:46.550Z,101563.19
2022-10-13T12:07:14.372Z,101563.44
2022-10-13T12:09:53.861Z,101555.81
2022-10-13T12:12:20.914Z,101556.97
2022-10-13T12:14:47.743Z,101551.41
2022-10-13T12:17:27.011Z,101551.88
2022-10-13T12:19:50.150Z,101551.06
2022-10-13T12:22:13.913Z,101545.16
2022-10-13T12:24:37.152Z,101546.78
2022-10-13T12:27:09.747Z,101544.47
2022-10-13T12:29:37.056Z,101536.16
2022-10-13T12:31:59.843Z,101541.69
2022-10-13T12:34:27.756Z,101533.72
2022-10-13T12:37:01.525Z,101527.22
2022-10-13T12:39:25.669Z,101535.44
2022-10-13T12:41:49.408Z,101528.25
2022-10-13T12:44:20.955Z,101532.34
2022-10-13T12:46:59.079Z,101531.50
2022-10-13T12:49:24.665Z,101528.72
2022-10-13T12:51:51.218Z,101531.88
2022-10-13T12:54:24.451Z,101531.75
2022-10-13T12:56:46.903Z,101540.44
2022-10-13T12:59:17.904Z,101530.94
2022-10-13T13:01:42.735Z,101530.94
2022-10-13T13:04:23.129Z,101527.22
2022-10-13T13:07:04.732Z,101527.13
2022-10-13T13:09:36.954Z,101524.22
2022-10-13T13:12:06.879Z,101525.41
2022-10-13T13:14:49.399Z,101525.25
2022-10-13T13:17:23.514Z,101529.53
2022-10-13T13:19:57.421Z,101529.44
2022-10-13T13:22:20.194Z,101530.13
2022-10-13T13:24:42.705Z,101538.31
2022-10-13T13:27:36.406Z,101532.66
2022-10-13T13:29:58.618Z,101527.34
2022-10-13T13:32:24.218Z,101527.22
2022-10-13T13:34:47.053Z,101527.91
2022-10-13T13:37:18.305Z,101530.69
2022-10-13T13:39:41.184Z,101521.56
2022-10-13T13:42:03.361Z,101517.63
2022-10-13T13:44:25.255Z,101505.03
2022-10-13T13:46:47.125Z,101507.56
2022-10-13T13:49:11.590Z,101508.97
2022-10-13T13:51:33.615Z,101503.91
2022-10-13T13:53:55.783Z,101502.50
2022-10-13T13:56:20.583Z,101501.44
2022-10-13T13:58:43.639Z,101499.63
2022-10-13T14:01:08.426Z,101500.41
2022-10-13T14:03:30.268Z,101503.53
2022-10-13T14:05:52.203Z,101499.94
2022-10-13T14:08:14.042Z,101499.63
2022-10-13T14:10:35.868Z,101500.06
2022-10-13T14:12:57.711Z,101486.53
2022-10-13T14:15:23.383Z,101490.47
2022-10-13T14:17:47.645Z,101496.72
2022-10-13T14:20:10.750Z,101479.50
2022-10-13T14:22:33.078Z,101483.44
2022-10-13T14:24:55.128Z,101490.47
2022-10-13T14:27:17.077Z,101486.41
2022-10-13T14:29:39.046Z,101491.16
2022-10-13T14:32:01.112Z,101472.53
2022-10-13T14:34:23.077Z,101471.41
2022-10-13T14:36:44.872Z,101477.88
2022-10-13T14:39:07.092Z,101485.50
2022-10-13T14:41:29.239Z,101479.59
2022-10-13T14:43:55.703Z,101480.06
2022-10-13T14:46:17.491Z,101480.84
2022-10-13T14:48:39.541Z,101478.09
2022-10-13T14:51:10.667Z,101486.41
2022-10-13T14:53:35.533Z,101485.13
2022-10-13T14:55:57.365Z,101489.88
2022-10-13T14:58:19.307Z,101485.13
2022-10-13T15:00:43.423Z,101484.34
2022-10-13T15:03:05.170Z,101483.88
2022-10-13T15:05:26.999Z,101478.31
2022-10-13T15:07:48.864Z,101481.56
2022-10-13T15:10:10.776Z,101480.75
2022-10-13T15:12:32.885Z,101471.63
2022-10-13T15:14:54.782Z,101473.13
2022-10-13T15:17:16.657Z,101475.53
2022-10-13T15:19:38.423Z,101471.50
2022-10-13T15:22:00.861Z,101471.50
2022-10-13T15:24:22.803Z,101467.59
2022-10-13T15:26:47.207Z,101465.16
2022-10-13T15:29:09.524Z,101461.25
2022-10-13T15:31:31.468Z,101463.31
2022-10-13T15:33:54.156Z,101454.63
2022-10-13T15:36:16.242Z,101461.81
2022-10-13T15:38:38.249Z,101454.28
2022-10-13T15:41:02.436Z,101458.22
2022-10-13T15:43:24.207Z,101456.59
2022-10-13T15:45:57.091Z,101451.84
2022-10-13T15:48:19.064Z,101450.25
2022-10-13T15:50:41.228Z,101442.72
2022-10-13T15:53:03.279Z,101447.78
2022-10-13T15:55:25.502Z,101459.38
2022-10-13T15:57:47.498Z,101461.69
2022-10-13T16:00:14.219Z,101464.44
2022-10-13T16:02:36.419Z,101461.25
2022-10-13T16:05:01.630Z,101460.78
2022-10-13T16:07:23.542Z,101453.59
2022-10-13T16:09:45.758Z,101451.50
2022-10-13T16:12:07.720Z,101454.28
2022-10-13T16:14:29.542Z,101452.22
2022-10-13T16:16:53.417Z,101456.13
2022-10-13T16:19:15.283Z,101456.97
2022-10-13T16:21:37.837Z,101447.00
2022-10-13T16:24:00.076Z,101454.63
2022-10-13T16:26:22.305Z,101449.44
2022-10-13T16:28:45.663Z,101439.47
2022-10-13T16:31:14.472Z,101450.59
2022-10-13T16:33:37.639Z,101442.63
2022-10-13T16:36:10.493Z,101455.31
2022-10-13T16:38:35.049Z,101448.50
2022-10-13T16:40:56.966Z,101444.13
2022-10-13T16:43:18.779Z,101450.81
2022-10-13T16:46:02.946Z,101444.81
2022-10-13T16:48:27.853Z,101449.53
2022-10-13T16:50:50.882Z,101449.91
2022-10-13T16:53:14.267Z,101452.69
2022-10-13T16:55:40.290Z,101440.75
2022-10-13T16:58:02.195Z,101444.69
2022-10-13T17:00:24.068Z,101446.22
2022-10-13T17:02:45.940Z,101453.72
2022-10-13T17:05:07.995Z,101454.06
2022-10-13T17:07:29.873Z,101460.78
2022-10-13T17:09:51.849Z,101459.50
2022-10-13T17:12:13.660Z,101457.88
2022-10-13T17:14:35.536Z,101467.69
2022-10-13T17:16:58.145Z,101465.94
2022-10-13T17:19:20.233Z,101467.41
2022-10-13T17:21:43.471Z,101466.16
2022-10-13T17:24:05.692Z,101475.63
2022-10-13T17:26:28.531Z,101468.81
2022-10-13T17:28:50.747Z,101464.75
2022-10-13T17:31:15.645Z,101467.88
2022-10-13T17:33:39.489Z,101461.06
2022-10-13T17:36:12.632Z,101475.25
2022-10-13T17:38:35.270Z,101474.78
2022-10-13T17:41:07.909Z,101474.34
2022-10-13T17:43:34.555Z,101481.38
2022-10-13T17:46:34.378Z,101485.28
2022-10-13T17:48:51.162Z,101488.06
2022-10-13T17:51:17.505Z,101490.84
2022-10-13T17:53:41.966Z,101494.06
2022-10-13T17:56:13.648Z,101485.75
2022-10-13T17:58:37.529Z,101490.13
2022-10-13T18:01:13.088Z,101484.97
2022-10-13T18:03:37.472Z,101490.50
2022-10-13T18:05:59.330Z,101489.34
2022-10-13T18:08:21.339Z,101490.13
2022-10-13T18:11:07.010Z,101495.69
2022-10-13T18:13:25.209Z,101497.31
2022-10-13T18:15:47.023Z,101500.41
2022-10-13T18:18:10.991Z,101491.31
2022-10-13T18:20:36.957Z,101497.19
2022-10-13T18:22:59.575Z,101498.00
2022-10-13T18:25:22.757Z,101495.25
2022-10-13T18:27:44.514Z,101502.06
2022-10-13T18:30:07.161Z,101496.97
2022-10-13T18:32:31.206Z,101498.13
2022-10-13T18:34:56.371Z,101506.91
2022-10-13T18:37:18.325Z,101503.66
2022-10-13T18:39:40.842Z,101511.66
2022-10-13T18:42:02.648Z,101509.22
2022-10-13T18:44:31.053Z,101512.78
2022-10-13T18:46:54.993Z,101509.22
2022-10-13T18:49:19.149Z,101522.59
2022-10-13T18:51:41.590Z,101513.16
2022-10-13T18:54:05.116Z,101518.69
2022-10-13T18:56:30.428Z,101523.41
2022-10-13T18:58:59.278Z,101520.63
2022-10-13T19:01:24.232Z,101526.53
2022-10-13T19:03:47.145Z,101520.03
2022-10-13T19:06:13.011Z,101530.34
2022-10-13T19:08:37.347Z,101526.75
2022-10-13T19:10:59.342Z,101525.59
2022-10-13T19:13:21.196Z,101526.75
2022-10-13T19:15:43.347Z,101524.78
2022-10-13T19:18:06.284Z,101526.75
2022-10-13T19:20:28.142Z,101519.94
2022-10-13T19:22:53.558Z,101524.66
2022-10-13T19:25:15.901Z,101526.59
2022-10-13T19:27:37.796Z,101518.66
2022-10-13T19:29:59.766Z,101517.03
2022-10-13T19:32:21.667Z,101516.22
2022-10-13T19:34:43.471Z,101522.09
2022-10-13T19:37:07.430Z,101521.63
2022-10-13T19:39:29.375Z,101522.78
2022-10-13T19:41:56.345Z,101525.06
2022-10-13T19:44:20.116Z,101531.78
2022-10-13T19:46:46.866Z,101534.56
2022-10-13T19:49:10.639Z,101533.75
2022-10-13T19:51:37.401Z,101541.69
2022-10-13T19:53:59.206Z,101534.19
2022-10-13T19:56:34.139Z,101533.88
2022-10-13T19:58:55.870Z,101526.72
2022-10-13T20:01:19.098Z,101536.16
2022-10-13T20:03:41.085Z,101539.41
2022-10-13T20:06:07.108Z,101538.25
2022-10-13T20:08:33.395Z,101532.69
2022-10-13T20:10:56.549Z,101537.81
2022-10-13T20:13:18.329Z,101534.19
2022-10-13T20:15:43.750Z,101538.47
2022-10-13T20:18:06.722Z,101538.00
2022-10-13T20:20:28.859Z,101543.19
2022-10-13T20:22:52.721Z,101536.03
2022-10-13T20:25:15.931Z,101543.19
2022-10-13T20:27:37.812Z,101543.19
2022-10-13T20:29:59.914Z,101531.78
2022-10-13T20:32:22.070Z,101539.75
2022-10-13T20:34:44.558Z,101542.19
2022-10-13T20:37:06.393Z,101535.84
2022-10-13T20:39:28.227Z,101541.84
2022-10-13T20:41:50.037Z,101541.84
2022-10-13T20:44:12.292Z,101543.78
2022-10-13T20:46:34.243Z,101540.69
2022-10-13T20:49:13.081Z,101539.56
2022-10-13T20:51:35.721Z,101551.44
2022-10-13T20:53:57.952Z,101549.81
2022-10-13T20:56:24.359Z,101551.44
2022-10-13T20:58:47.518Z,101556.50
2022-10-13T21:01:09.739Z,101556.50
2022-10-13T21:03:31.611Z,101553.75
2022-10-13T21:06:03.858Z,101551.78
2022-10-13T21:08:25.654Z,101560.88
2022-10-13T21:10:48.576Z,101561.38
2022-10-13T21:13:15.365Z,101563.34
2022-10-13T21:15:40.050Z,101558.59
2022-10-13T21:18:01.827Z,101566.09
2022-10-13T21:20:24.013Z,101578.00
2022-10-13T21:22:45.880Z,101569.69
2022-10-13T21:25:08.391Z,101563.66
2022-10-13T21:27:30.200Z,101567.28
2022-10-13T21:29:51.965Z,101566.78
2022-10-13T21:32:13.852Z,101571.50
2022-10-13T21:34:38.984Z,101571.50
2022-10-13T21:37:00.749Z,101563.19
2022-10-13T21:39:22.492Z,101565.50
2022-10-13T21:41:44.383Z,101557.19
2022-10-13T21:44:06.199Z,101562.38
2022-10-13T21:46:32.970Z,101556.03
2022-10-13T21:48:58.643Z,101555.22
2022-10-13T21:51:29.266Z,101553.25
2022-10-13T21:53:54.743Z,101559.13
2022-10-13T21:56:17.318Z,101555.22
2022-10-13T21:58:39.313Z,101554.44
2022-10-13T22:01:03.839Z,101557.19
2022-10-13T22:03:25.676Z,101547.59
2022-10-13T22:05:47.439Z,101551.03
2022-10-13T22:08:09.229Z,101550.22
2022-10-13T22:10:31.021Z,101543.09
2022-10-13T22:12:52.768Z,101541.44
2022-10-13T22:15:14.820Z,101537.88
2022-10-13T22:17:36.595Z,101524.69
2022-10-13T22:20:00.961Z,101533.22
2022-10-13T22:22:25.357Z,101531.47
2022-10-13T22:24:49.246Z,101536.53
2022-10-13T22:27:11.046Z,101540.47
2022-10-13T22:29:32.905Z,101536.88
2022-10-13T22:32:00.017Z,101541.59
2022-10-13T22:34:21.948Z,101532.47
2022-10-13T22:36:45.215Z,101536.38
2022-10-13T22:39:07.408Z,101528.44
2022-10-13T22:41:29.703Z,101533.50
2022-10-13T22:43:57.778Z,101526.69
2022-10-13T22:46:23.345Z,101523.78
2022-10-13T22:48:45.624Z,101528.00
2022-10-13T22:51:10.183Z,101527.69
2022-10-13T22:53:33.974Z,101523.31
2022-10-13T22:55:56.056Z,101517.97
2022-10-13T22:58:17.821Z,101517.50
2022-10-13T23:00:40.293Z,101513.09
2022-10-13T23:03:03.300Z,101510.00
2022-10-13T23:05:25.189Z,101513.56
2022-10-13T23:07:47.004Z,101505.25
2022-10-13T23:10:09.499Z,101497.31
2022-10-13T23:12:32.343Z,101498.78
2022-10-13T23:14:54.165Z,101490.47
2022-10-13T23:17:16.103Z,101494.88
2022-10-13T23:19:37.970Z,101493.72
2022-10-13T23:21:59.758Z,101494.19
2022-10-13T23:24:21.762Z,101490.28
2022-10-13T23:26:43.666Z,101499.03
2022-10-13T23:29:05.661Z,101493.50
2022-10-13T23:31:28.447Z,101497.09
2022-10-13T23:33:51.342Z,101492.00
2022-10-13T23:36:23.445Z,101497.22
2022-10-13T23:38:45.970Z,101488.91
2022-10-13T23:41:12.102Z,101486.16
2022-10-13T23:43:35.773Z,101491.69
2022-10-13T23:45:57.594Z,101479.81
2022-10-13T23:48:19.369Z,101470.22
2022-10-13T23:50:41.211Z,101469.53
2022-10-13T23:53:04.385Z,101467.56
2022-10-13T23:55:26.244Z,101470.69
2022-10-13T23:57:48.221Z,101467.09
